createdAt,value
2024-02-29T00:00:59.891Z,0.87
2024-02-29T00:01:59.953Z,0.85
2024-02-29T00:02:59.900Z,0.87
2024-02-29T00:03:59.988Z,0.85
2024-02-29T00:05:00.006Z,0.86
2024-02-29T00:06:00.080Z,0.84
2024-02-29T00:07:00.177Z,0.84
2024-02-29T00:08:00.165Z,0.83
2024-02-29T00:09:00.235Z,0.85
2024-02-29T00:10:00.332Z,0.84
2024-02-29T00:11:00.364Z,0.86
2024-02-29T00:12:00.429Z,0.85
2024-02-29T00:13:00.477Z,0.83
2024-02-29T00:14:00.488Z,0.84
2024-02-29T00:15:00.543Z,0.83
2024-02-29T00:16:00.574Z,0.83
2024-02-29T00:17:00.685Z,0.83
2024-02-29T00:18:00.738Z,0.83
2024-02-29T00:19:00.747Z,0.83
2024-02-29T00:20:00.800Z,0.81
2024-02-29T00:21:00.828Z,0.83
2024-02-29T00:22:00.891Z,0.81
2024-02-29T00:23:00.939Z,0.83
2024-02-29T00:24:00.991Z,0.82
2024-02-29T00:25:01.127Z,0.82
2024-02-29T00:26:01.069Z,0.82
2024-02-29T00:27:01.157Z,0.81
2024-02-29T00:28:01.259Z,0.81
2024-02-29T00:29:01.242Z,0.80
2024-02-29T00:30:01.284Z,0.81
2024-02-29T00:31:01.378Z,0.80
2024-02-29T00:32:01.399Z,0.79
2024-02-29T00:33:01.477Z,0.80
2024-02-29T00:34:01.512Z,0.82
2024-02-29T00:35:01.538Z,0.81
2024-02-29T00:36:09.233Z,0.79
2024-02-29T00:37:02.622Z,0.79
2024-02-29T00:38:01.601Z,0.79
2024-02-29T00:39:06.426Z,0.80
2024-02-29T00:40:02.643Z,0.79
2024-02-29T00:41:01.609Z,0.79
2024-02-29T00:42:01.601Z,0.80
2024-02-29T00:43:01.662Z,0.80
2024-02-29T00:44:01.639Z,0.80
2024-02-29T00:45:01.638Z,0.81
2024-02-29T00:46:01.674Z,0.79
2024-02-29T00:47:01.625Z,0.79
2024-02-29T00:48:01.663Z,0.78
2024-02-29T00:49:01.684Z,0.78
2024-02-29T00:50:01.641Z,0.78
2024-02-29T00:51:01.702Z,0.79
2024-02-29T00:52:01.732Z,0.77
2024-02-29T00:53:01.791Z,0.77
2024-02-29T00:54:01.938Z,0.79
2024-02-29T00:55:01.936Z,0.77
2024-02-29T00:56:01.960Z,0.76
2024-02-29T00:57:02.091Z,0.76
2024-02-29T00:58:02.123Z,0.76
2024-02-29T00:59:02.144Z,0.76
2024-02-29T01:00:02.177Z,0.76
2024-02-29T01:01:02.373Z,0.76
2024-02-29T01:02:02.923Z,0.77
2024-02-29T01:03:02.378Z,0.76
2024-02-29T01:04:02.503Z,0.76
2024-02-29T01:05:02.477Z,0.76
2024-02-29T01:06:02.558Z,0.76
2024-02-29T01:07:02.709Z,0.76
2024-02-29T01:08:02.674Z,0.75
2024-02-29T01:09:02.719Z,0.75
2024-02-29T01:10:02.864Z,0.76
2024-02-29T01:11:02.887Z,0.74
2024-02-29T01:12:02.922Z,0.73
2024-02-29T01:13:03.007Z,0.75
2024-02-29T01:14:13.097Z,0.74
2024-02-29T01:15:03.031Z,0.74
2024-02-29T01:16:03.202Z,0.75
2024-02-29T01:17:03.031Z,0.75
2024-02-29T01:18:03.064Z,0.76
2024-02-29T01:19:03.087Z,0.75
2024-02-29T01:20:03.047Z,0.75
2024-02-29T01:21:03.040Z,0.76
2024-02-29T01:22:03.071Z,0.75
2024-02-29T01:23:03.051Z,0.75
2024-02-29T01:24:03.064Z,0.74
2024-02-29T01:25:03.127Z,0.73
2024-02-29T01:26:03.059Z,0.74
2024-02-29T01:27:03.063Z,0.73
2024-02-29T01:28:03.140Z,0.72
2024-02-29T01:29:03.062Z,0.73
2024-02-29T01:30:03.074Z,0.73
2024-02-29T01:31:03.237Z,0.73
2024-02-29T01:32:12.087Z,0.72
2024-02-29T01:33:04.101Z,0.72
2024-02-29T01:34:03.130Z,0.72
2024-02-29T01:35:03.074Z,0.72
2024-02-29T01:36:03.059Z,0.72
2024-02-29T01:37:03.103Z,0.73
2024-02-29T01:38:03.081Z,0.73
2024-02-29T01:39:03.093Z,0.73
2024-02-29T01:40:03.206Z,0.71
2024-02-29T01:41:03.069Z,0.71
2024-02-29T01:42:03.085Z,0.71
2024-02-29T01:43:03.190Z,0.71
2024-02-29T01:44:03.231Z,0.72
2024-02-29T01:45:03.284Z,0.71
2024-02-29T01:46:03.360Z,0.71
2024-02-29T01:47:03.402Z,0.72
2024-02-29T01:48:03.515Z,0.71
2024-02-29T01:49:03.554Z,0.70
2024-02-29T01:50:03.818Z,0.70
2024-02-29T01:51:03.672Z,0.69
2024-02-29T01:52:03.781Z,0.71
2024-02-29T01:53:03.811Z,0.71
2024-02-29T01:54:03.886Z,0.70
2024-02-29T01:55:04.099Z,0.70
2024-02-29T01:56:04.025Z,0.69
2024-02-29T01:57:04.088Z,0.69
2024-02-29T01:58:04.260Z,0.69
2024-02-29T01:59:04.272Z,0.69
2024-02-29T02:00:04.342Z,0.71
2024-02-29T02:01:04.433Z,0.69
2024-02-29T02:02:04.428Z,0.70
2024-02-29T02:03:04.472Z,0.68
2024-02-29T02:04:06.394Z,0.68
2024-02-29T02:05:04.617Z,0.69
2024-02-29T02:06:04.664Z,0.68
2024-02-29T02:07:04.759Z,0.68
2024-02-29T02:08:04.815Z,0.68
2024-02-29T02:09:04.888Z,0.67
2024-02-29T02:10:04.995Z,0.68
2024-02-29T02:11:05.042Z,0.68
2024-02-29T02:12:05.073Z,0.67
2024-02-29T02:13:05.216Z,0.68
2024-02-29T02:14:05.221Z,0.66
2024-02-29T02:15:05.265Z,0.67
2024-02-29T02:16:05.390Z,0.66
2024-02-29T02:17:05.413Z,0.67
2024-02-29T02:18:05.523Z,0.66
2024-02-29T02:19:05.615Z,0.67
2024-02-29T02:20:05.639Z,0.68
2024-02-29T02:21:05.695Z,0.65
2024-02-29T02:22:05.984Z,0.67
2024-02-29T02:23:05.828Z,0.66
2024-02-29T02:24:06.359Z,0.67
2024-02-29T02:25:06.038Z,0.65
2024-02-29T02:26:06.058Z,0.66
2024-02-29T02:27:06.126Z,0.67
2024-02-29T02:28:06.289Z,0.65
2024-02-29T02:29:06.404Z,0.65
2024-02-29T02:30:06.346Z,0.65
2024-02-29T02:31:06.430Z,0.66
2024-02-29T02:32:06.471Z,0.66
2024-02-29T02:33:06.608Z,0.66
2024-02-29T02:34:12.304Z,0.65
2024-02-29T02:35:06.608Z,0.65
2024-02-29T02:36:06.639Z,0.65
2024-02-29T02:37:06.744Z,0.65
2024-02-29T02:38:06.623Z,0.65
2024-02-29T02:39:27.630Z,0.64
2024-02-29T02:40:06.754Z,0.65
2024-02-29T02:41:06.620Z,0.66
2024-02-29T02:42:06.638Z,0.67
2024-02-29T02:43:06.684Z,0.67
2024-02-29T02:44:28.866Z,0.68
2024-02-29T02:45:06.624Z,0.65
2024-02-29T02:46:06.733Z,0.66
2024-02-29T02:47:06.643Z,0.68
2024-02-29T02:48:06.702Z,0.69
2024-02-29T02:49:06.802Z,0.69
2024-02-29T02:50:06.746Z,0.69
2024-02-29T02:51:06.659Z,0.68
2024-02-29T02:52:06.722Z,0.67
2024-02-29T02:53:06.654Z,0.66
2024-02-29T02:54:06.666Z,0.66
2024-02-29T02:55:06.808Z,0.66
2024-02-29T02:56:06.666Z,0.66
2024-02-29T02:57:06.669Z,0.64
2024-02-29T02:58:06.722Z,0.65
2024-02-29T02:59:06.679Z,0.65
2024-02-29T03:00:06.688Z,0.65
2024-02-29T03:01:06.723Z,0.65
2024-02-29T03:02:06.746Z,0.64
2024-02-29T03:03:06.683Z,0.62
2024-02-29T03:04:06.781Z,0.63
2024-02-29T03:05:06.769Z,0.63
2024-02-29T03:06:06.835Z,0.62
2024-02-29T03:07:06.955Z,0.62
2024-02-29T03:08:07.039Z,0.63
2024-02-29T03:09:07.013Z,0.62
2024-02-29T03:10:07.137Z,0.61
2024-02-29T03:11:07.236Z,0.61
2024-02-29T03:12:07.222Z,0.61
2024-02-29T03:13:07.362Z,0.60
2024-02-29T03:14:12.182Z,0.59
2024-02-29T03:15:07.300Z,0.59
2024-02-29T03:16:07.370Z,0.59
2024-02-29T03:17:07.305Z,0.57
2024-02-29T03:18:07.386Z,0.57
2024-02-29T03:19:07.351Z,0.57
2024-02-29T03:20:07.367Z,0.56
2024-02-29T03:21:07.401Z,0.55
2024-02-29T03:22:07.465Z,0.54
2024-02-29T03:23:07.382Z,0.55
2024-02-29T03:24:07.336Z,0.54
2024-02-29T03:25:07.366Z,0.53
2024-02-29T03:26:07.346Z,0.53
2024-02-29T03:27:07.348Z,0.53
2024-02-29T03:28:07.472Z,0.53
2024-02-29T03:29:07.321Z,0.53
2024-02-29T03:30:07.348Z,0.51
2024-02-29T03:31:07.381Z,0.52
2024-02-29T03:32:07.346Z,0.52
2024-02-29T03:33:07.384Z,0.51
2024-02-29T03:34:07.441Z,0.50
2024-02-29T03:35:07.365Z,0.50
2024-02-29T03:36:07.395Z,0.51
2024-02-29T03:37:07.445Z,0.51
2024-02-29T03:38:07.406Z,0.50
2024-02-29T03:39:07.397Z,0.51
2024-02-29T03:40:07.496Z,0.51
2024-02-29T03:41:07.412Z,0.50
2024-02-29T03:42:07.415Z,0.50
2024-02-29T03:43:07.478Z,0.51
2024-02-29T03:44:07.466Z,0.51
2024-02-29T03:45:07.435Z,0.50
2024-02-29T03:46:07.520Z,0.50
2024-02-29T03:47:07.439Z,0.51
2024-02-29T03:48:07.533Z,0.50
2024-02-29T03:49:07.521Z,0.50
2024-02-29T03:50:07.528Z,0.50
2024-02-29T03:51:07.543Z,0.50
2024-02-29T03:52:07.581Z,0.50
2024-02-29T03:53:07.614Z,0.50
2024-02-29T03:54:07.636Z,0.50
2024-02-29T03:55:07.732Z,0.51
2024-02-29T03:56:07.757Z,0.51
2024-02-29T03:57:07.780Z,0.50
2024-02-29T03:58:07.961Z,0.51
2024-02-29T03:59:07.930Z,0.50
2024-02-29T04:00:08.099Z,0.50
2024-02-29T04:01:08.313Z,0.50
2024-02-29T04:02:08.114Z,0.50
2024-02-29T04:03:08.195Z,0.51
2024-02-29T04:04:08.318Z,0.50
2024-02-29T04:05:08.332Z,0.51
2024-02-29T04:06:08.414Z,0.51
2024-02-29T04:07:08.662Z,0.51
2024-02-29T04:08:08.547Z,0.50
2024-02-29T04:09:13.682Z,0.51
2024-02-29T04:10:08.670Z,0.51
2024-02-29T04:11:08.692Z,0.51
2024-02-29T04:12:08.637Z,0.51
2024-02-29T04:13:08.752Z,0.51
2024-02-29T04:14:08.641Z,0.50
2024-02-29T04:15:08.633Z,0.50
2024-02-29T04:16:08.714Z,0.51
2024-02-29T04:17:08.803Z,0.50
2024-02-29T04:18:08.892Z,0.51
2024-02-29T04:19:08.996Z,0.51
2024-02-29T04:20:08.978Z,0.51
2024-02-29T04:21:09.039Z,0.51
2024-02-29T04:22:09.134Z,0.50
2024-02-29T04:23:09.167Z,0.50
2024-02-29T04:24:09.225Z,0.51
2024-02-29T04:25:09.314Z,0.52
2024-02-29T04:26:09.344Z,0.52
2024-02-29T04:27:09.434Z,0.51
2024-02-29T04:28:09.532Z,0.51
2024-02-29T04:29:09.542Z,0.51
2024-02-29T04:30:09.609Z,0.51
2024-02-29T04:31:09.734Z,0.51
2024-02-29T04:32:09.720Z,0.52
2024-02-29T04:33:09.786Z,0.51
2024-02-29T04:34:09.888Z,0.51
2024-02-29T04:35:09.968Z,0.50
2024-02-29T04:36:09.956Z,0.51
2024-02-29T04:37:10.112Z,0.50
2024-02-29T04:38:10.026Z,0.51
2024-02-29T04:39:10.089Z,0.51
2024-02-29T04:40:11.517Z,0.51
2024-02-29T04:41:10.206Z,0.51
2024-02-29T04:42:10.243Z,0.51
2024-02-29T04:43:10.338Z,0.51
2024-02-29T04:44:10.350Z,0.52
2024-02-29T04:45:10.435Z,0.51
2024-02-29T04:46:10.533Z,0.52
2024-02-29T04:47:17.856Z,0.50
2024-02-29T04:48:17.873Z,0.50
2024-02-29T04:49:17.910Z,0.50
2024-02-29T04:50:17.849Z,0.50
2024-02-29T04:51:17.859Z,0.50
2024-02-29T04:52:17.866Z,0.51
2024-02-29T04:53:17.864Z,0.51
2024-02-29T04:54:38.888Z,0.50
2024-02-29T04:55:17.917Z,0.50
2024-02-29T04:56:17.873Z,0.51
2024-02-29T04:57:17.868Z,0.51
2024-02-29T04:58:17.936Z,0.52
2024-02-29T04:59:21.700Z,0.52
2024-02-29T05:00:17.929Z,0.50
2024-02-29T05:01:18.003Z,0.50
2024-02-29T05:02:17.987Z,0.50
2024-02-29T05:03:18.468Z,0.50
2024-02-29T05:04:17.908Z,0.50
2024-02-29T05:05:21.728Z,0.51
2024-02-29T05:06:17.887Z,0.50
2024-02-29T05:07:17.967Z,0.51
2024-02-29T05:08:17.901Z,0.50
2024-02-29T05:09:17.885Z,0.49
2024-02-29T05:10:18.003Z,0.49
2024-02-29T05:11:17.918Z,0.51
2024-02-29T05:12:17.894Z,0.51
2024-02-29T05:13:17.908Z,0.52
2024-02-29T05:14:17.882Z,0.51
2024-02-29T05:15:17.905Z,0.50
2024-02-29T05:16:17.939Z,0.52
2024-02-29T05:17:17.902Z,0.52
2024-02-29T05:18:17.968Z,0.51
2024-02-29T05:19:17.985Z,0.53
2024-02-29T05:20:17.936Z,0.52
2024-02-29T05:21:17.901Z,0.51
2024-02-29T05:22:17.932Z,0.52
2024-02-29T05:23:17.906Z,0.52
2024-02-29T05:24:17.909Z,0.51
2024-02-29T05:25:18.074Z,0.51
2024-02-29T05:26:17.908Z,0.52
2024-02-29T05:27:17.903Z,0.52
2024-02-29T05:28:17.975Z,0.51
2024-02-29T05:29:17.955Z,0.51
2024-02-29T05:30:17.921Z,0.53
2024-02-29T05:31:17.973Z,0.52
2024-02-29T05:32:19.070Z,0.50
2024-02-29T05:33:18.042Z,0.50
2024-02-29T05:34:18.088Z,0.51
2024-02-29T05:35:17.949Z,0.53
2024-02-29T05:36:17.950Z,0.52
2024-02-29T05:37:18.025Z,0.50
2024-02-29T05:38:17.938Z,0.52
2024-02-29T05:39:17.948Z,0.52
2024-02-29T05:40:18.019Z,0.52
2024-02-29T05:41:17.965Z,0.52
2024-02-29T05:42:17.943Z,0.52
2024-02-29T05:43:17.977Z,0.52
2024-02-29T05:44:17.942Z,0.51
2024-02-29T05:45:17.958Z,0.51
2024-02-29T05:46:18.035Z,0.53
2024-02-29T05:47:17.953Z,0.51
2024-02-29T05:48:17.959Z,0.52
2024-02-29T05:49:18.026Z,0.52
2024-02-29T05:50:17.969Z,0.52
2024-02-29T05:51:17.952Z,0.52
2024-02-29T05:52:17.994Z,0.53
2024-02-29T05:53:17.961Z,0.52
2024-02-29T05:54:17.987Z,0.51
2024-02-29T05:55:18.165Z,0.52
2024-02-29T05:56:18.081Z,0.51
2024-02-29T05:57:18.112Z,0.51
2024-02-29T05:58:18.167Z,0.51
2024-02-29T05:59:18.146Z,0.51
2024-02-29T06:00:18.161Z,0.51
2024-02-29T06:01:18.257Z,0.51
2024-02-29T06:02:18.257Z,0.52
2024-02-29T06:03:18.277Z,0.52
2024-02-29T06:04:18.452Z,0.50
2024-02-29T06:05:18.348Z,0.51
2024-02-29T06:06:18.368Z,0.51
2024-02-29T06:07:18.443Z,0.52
2024-02-29T06:08:18.445Z,0.52
2024-02-29T06:09:18.478Z,0.52
2024-02-29T06:10:18.579Z,0.52
2024-02-29T06:11:18.561Z,0.52
2024-02-29T06:12:18.563Z,0.51
2024-02-29T06:13:18.687Z,0.51
2024-02-29T06:14:18.644Z,0.51
2024-02-29T06:15:18.637Z,0.53
2024-02-29T06:16:18.684Z,0.52
2024-02-29T06:17:18.712Z,0.53
2024-02-29T06:18:18.751Z,0.51
2024-02-29T06:19:18.873Z,0.51
2024-02-29T06:20:18.777Z,0.51
2024-02-29T06:21:18.777Z,0.51
2024-02-29T06:22:18.839Z,0.52
2024-02-29T06:23:18.816Z,0.51
2024-02-29T06:24:18.822Z,0.51
2024-02-29T06:25:19.281Z,0.52
2024-02-29T06:26:18.901Z,0.52
2024-02-29T06:27:18.886Z,0.51
2024-02-29T06:28:22.925Z,0.53
2024-02-29T06:29:20.005Z,0.53
2024-02-29T06:30:18.930Z,0.51
2024-02-29T06:31:19.106Z,0.52
2024-02-29T06:32:18.934Z,0.52
2024-02-29T06:33:18.954Z,0.47
2024-02-29T06:34:18.985Z,0.50
2024-02-29T06:35:18.952Z,0.51
2024-02-29T06:36:18.924Z,0.50
2024-02-29T06:37:18.970Z,0.50
2024-02-29T06:38:18.921Z,0.50
2024-02-29T06:39:18.925Z,0.50
2024-02-29T06:40:19.022Z,0.50
2024-02-29T06:41:18.944Z,0.51
2024-02-29T06:42:18.948Z,0.50
2024-02-29T06:43:19.218Z,0.50
2024-02-29T06:44:18.946Z,0.51
2024-02-29T06:45:18.982Z,0.50
2024-02-29T06:46:19.065Z,0.51
2024-02-29T06:47:19.004Z,0.51
2024-02-29T06:48:19.077Z,0.52
2024-02-29T06:49:19.128Z,0.51
2024-02-29T06:50:19.164Z,0.51
2024-02-29T06:51:19.168Z,0.53
2024-02-29T06:52:19.353Z,0.54
2024-02-29T06:53:19.222Z,0.57
2024-02-29T06:54:19.297Z,0.59
2024-02-29T06:55:19.454Z,0.58
2024-02-29T06:56:19.414Z,0.60
2024-02-29T06:57:19.446Z,0.61
2024-02-29T06:58:19.566Z,0.61
2024-02-29T06:59:19.486Z,0.61
2024-02-29T07:00:19.513Z,0.63
2024-02-29T07:01:19.552Z,0.64
2024-02-29T07:02:19.526Z,0.65
2024-02-29T07:03:19.535Z,0.66
2024-02-29T07:04:19.744Z,0.65
2024-02-29T07:05:19.703Z,0.64
2024-02-29T07:06:19.670Z,0.64
2024-02-29T07:07:19.720Z,0.62
2024-02-29T07:08:19.744Z,0.59
2024-02-29T07:09:19.773Z,0.57
2024-02-29T07:10:19.899Z,0.54
2024-02-29T07:11:19.830Z,0.53
2024-02-29T07:12:19.924Z,0.53
2024-02-29T07:13:20.014Z,0.53
2024-02-29T07:14:19.983Z,0.53
2024-02-29T07:15:20.022Z,0.52
2024-02-29T07:16:20.047Z,0.54
2024-02-29T07:17:20.037Z,0.53
2024-02-29T07:18:20.066Z,0.54
2024-02-29T07:19:20.101Z,0.57
2024-02-29T07:20:20.130Z,0.56
2024-02-29T07:21:20.177Z,0.58
2024-02-29T07:22:20.322Z,0.61
2024-02-29T07:23:20.338Z,0.63
2024-02-29T07:24:20.383Z,0.67
2024-02-29T07:25:20.487Z,0.68
2024-02-29T07:26:20.496Z,0.71
2024-02-29T07:27:20.527Z,0.73
2024-02-29T07:28:20.639Z,0.75
2024-02-29T07:29:20.590Z,0.78
2024-02-29T07:30:20.700Z,0.80
2024-02-29T07:31:20.695Z,0.83
2024-02-29T07:32:20.703Z,0.85
2024-02-29T07:33:20.791Z,0.89
2024-02-29T07:34:20.763Z,0.92
2024-02-29T07:35:20.703Z,0.96
2024-02-29T07:36:20.745Z,1.00
2024-02-29T07:37:20.915Z,1.05
2024-02-29T07:38:20.753Z,1.10
2024-02-29T07:39:20.770Z,1.16
2024-02-29T07:40:20.926Z,1.25
2024-02-29T07:41:20.768Z,1.30
2024-02-29T07:42:20.797Z,1.30
2024-02-29T07:43:20.945Z,1.36
2024-02-29T07:44:20.866Z,1.42
2024-02-29T07:45:21.399Z,1.47
2024-02-29T07:46:21.022Z,1.55
2024-02-29T07:47:21.070Z,1.63
2024-02-29T07:48:21.161Z,1.68
2024-02-29T07:49:21.273Z,1.75
2024-02-29T07:50:21.272Z,1.79
2024-02-29T07:51:21.340Z,1.88
2024-02-29T07:52:21.552Z,1.95
2024-02-29T07:53:21.513Z,2.00
2024-02-29T07:54:21.601Z,2.15
2024-02-29T07:55:21.706Z,2.25
2024-02-29T07:56:21.732Z,2.32
2024-02-29T07:57:21.720Z,2.52
2024-02-29T07:58:21.873Z,2.50
2024-02-29T07:59:21.820Z,2.51
2024-02-29T08:00:21.882Z,2.63
2024-02-29T08:01:22.019Z,2.73
2024-02-29T08:02:24.684Z,2.82
2024-02-29T08:03:21.997Z,2.95
2024-02-29T08:04:22.048Z,3.06
2024-02-29T08:05:22.004Z,3.10
2024-02-29T08:06:21.995Z,3.22
2024-02-29T08:07:22.065Z,3.24
2024-02-29T08:08:22.009Z,3.37
2024-02-29T08:09:22.002Z,3.51
2024-02-29T08:10:22.095Z,3.65
2024-02-29T08:11:22.106Z,3.54
2024-02-29T08:12:22.003Z,3.69
2024-02-29T08:13:22.023Z,3.78
2024-02-29T08:14:22.038Z,4.04
2024-02-29T08:15:22.026Z,4.14
2024-02-29T08:16:22.021Z,4.04
2024-02-29T08:17:22.013Z,4.14
2024-02-29T08:18:22.019Z,4.22
2024-02-29T08:19:22.089Z,4.37
2024-02-29T08:20:22.034Z,4.36
2024-02-29T08:21:22.016Z,4.49
2024-02-29T08:22:22.038Z,4.52
2024-02-29T08:23:22.022Z,4.81
2024-02-29T08:24:22.060Z,4.78
2024-02-29T08:25:22.050Z,4.74
2024-02-29T08:26:22.014Z,4.97
2024-02-29T08:27:22.019Z,5.10
2024-02-29T08:28:22.099Z,5.23
2024-02-29T08:29:22.014Z,5.33
2024-02-29T08:30:22.042Z,5.53
2024-02-29T08:31:22.080Z,5.56
2024-02-29T08:32:22.060Z,5.74
2024-02-29T08:33:22.083Z,5.89
2024-02-29T08:34:22.126Z,5.95
2024-02-29T08:35:22.047Z,6.24
2024-02-29T08:36:22.039Z,6.14
2024-02-29T08:37:22.117Z,6.51
2024-02-29T08:38:22.051Z,6.44
2024-02-29T08:39:22.037Z,6.60
2024-02-29T08:40:22.137Z,6.56
2024-02-29T08:41:22.034Z,6.73
2024-02-29T08:42:22.045Z,6.80
2024-02-29T08:43:22.082Z,7.01
2024-02-29T08:44:22.053Z,7.21
2024-02-29T08:45:23.015Z,7.24
2024-02-29T08:46:22.143Z,7.40
2024-02-29T08:47:22.053Z,7.54
2024-02-29T08:48:22.063Z,7.52
2024-02-29T08:49:22.157Z,7.69
2024-02-29T08:50:22.074Z,7.74
2024-02-29T08:51:22.081Z,7.56
2024-02-29T08:52:22.107Z,7.54
2024-02-29T08:53:22.065Z,6.06
2024-02-29T08:54:22.062Z,4.03
2024-02-29T08:55:22.196Z,3.01
2024-02-29T08:56:22.068Z,2.43
2024-02-29T08:57:22.078Z,1.90
2024-02-29T08:58:22.240Z,1.62
2024-02-29T08:59:22.054Z,1.44
2024-02-29T09:00:22.084Z,1.88
2024-02-29T09:01:22.088Z,2.24
2024-02-29T09:02:22.063Z,2.47
2024-02-29T09:03:22.065Z,2.42
2024-02-29T09:04:22.101Z,2.49
2024-02-29T09:05:22.102Z,2.49
2024-02-29T09:06:22.073Z,2.45
2024-02-29T09:07:22.129Z,2.36
2024-02-29T09:08:22.966Z,2.38
2024-02-29T09:09:22.062Z,2.36
2024-02-29T09:10:22.111Z,2.34
2024-02-29T09:11:22.140Z,2.34
2024-02-29T09:12:22.098Z,2.28
2024-02-29T09:14:22.101Z,2.28
2024-02-29T09:15:22.080Z,2.29
2024-02-29T09:16:22.162Z,2.27
2024-02-29T09:17:22.097Z,2.23
2024-02-29T09:18:22.107Z,2.22
2024-02-29T09:19:22.210Z,2.25
2024-02-29T09:20:22.117Z,2.25
2024-02-29T09:21:22.081Z,2.27
2024-02-29T09:22:22.166Z,2.26
2024-02-29T09:23:22.089Z,2.21
2024-02-29T09:24:22.096Z,2.32
2024-02-29T09:25:22.233Z,2.26
2024-02-29T09:26:22.109Z,2.24
2024-02-29T09:27:22.116Z,2.29
2024-02-29T09:28:22.246Z,2.37
2024-02-29T09:29:24.142Z,2.33
2024-02-29T09:30:22.139Z,2.34
2024-02-29T09:31:22.337Z,2.35
2024-02-29T09:32:22.106Z,2.37
2024-02-29T09:33:22.099Z,2.41
2024-02-29T09:34:22.231Z,2.41
2024-02-29T09:35:22.127Z,2.47
2024-02-29T09:36:22.121Z,2.44
2024-02-29T09:37:22.130Z,2.47
2024-02-29T09:38:22.128Z,2.54
2024-02-29T09:39:22.122Z,2.56
2024-02-29T09:40:22.454Z,2.57
2024-02-29T09:41:32.728Z,2.57
2024-02-29T09:42:23.160Z,2.57
2024-02-29T09:43:22.223Z,2.59
2024-02-29T09:44:22.125Z,2.63
2024-02-29T09:45:23.746Z,2.74
2024-02-29T09:46:22.154Z,2.84
2024-02-29T09:47:22.156Z,2.87
2024-02-29T09:48:22.154Z,2.87
2024-02-29T09:49:22.200Z,2.93
2024-02-29T09:50:22.170Z,2.90
2024-02-29T09:51:22.136Z,2.90
2024-02-29T09:52:22.172Z,2.96
2024-02-29T09:53:22.147Z,2.97
2024-02-29T09:54:22.157Z,2.97
2024-02-29T09:55:22.192Z,3.04
2024-02-29T09:56:22.159Z,3.03
2024-02-29T09:57:22.201Z,2.98
2024-02-29T09:58:22.306Z,3.08
2024-02-29T09:59:22.171Z,3.12
2024-02-29T10:00:22.191Z,3.15
2024-02-29T10:01:22.257Z,3.21
2024-02-29T10:02:22.211Z,3.24
2024-02-29T10:03:22.219Z,3.24
2024-02-29T10:04:22.261Z,3.46
2024-02-29T10:05:22.181Z,3.41
2024-02-29T10:06:22.164Z,3.67
2024-02-29T10:07:22.238Z,3.88
2024-02-29T10:08:22.166Z,3.94
2024-02-29T10:09:22.178Z,3.93
2024-02-29T10:10:22.369Z,4.03
2024-02-29T10:11:22.291Z,4.24
2024-02-29T10:12:22.228Z,4.27
2024-02-29T10:13:22.333Z,4.43
2024-02-29T10:14:22.230Z,4.56
2024-02-29T10:15:22.179Z,4.73
2024-02-29T10:16:22.745Z,4.78
2024-02-29T10:17:22.194Z,4.96
2024-02-29T10:18:22.251Z,5.09
2024-02-29T10:19:22.304Z,5.07
2024-02-29T10:20:22.208Z,5.56
2024-02-29T10:21:22.193Z,6.04
2024-02-29T10:22:22.259Z,6.10
2024-02-29T10:23:22.188Z,6.49
2024-02-29T10:24:22.198Z,7.01
2024-02-29T10:25:22.340Z,7.27
2024-02-29T10:26:22.203Z,7.54
2024-02-29T10:27:22.186Z,8.02
2024-02-29T10:28:22.259Z,8.25
2024-02-29T10:29:23.858Z,8.04
2024-02-29T10:30:22.208Z,8.41
2024-02-29T10:31:22.251Z,8.55
2024-02-29T10:32:22.241Z,8.76
2024-02-29T10:33:22.264Z,9.01
2024-02-29T10:34:22.399Z,9.28
2024-02-29T10:35:22.221Z,9.51
2024-02-29T10:36:22.212Z,9.81
2024-02-29T10:37:22.323Z,10.58
2024-02-29T10:38:22.250Z,11.18
2024-02-29T10:39:22.226Z,11.79
2024-02-29T10:40:22.347Z,11.74
2024-02-29T10:41:22.222Z,12.18
2024-02-29T10:42:22.243Z,12.10
2024-02-29T10:43:22.330Z,12.85
2024-02-29T10:44:22.230Z,12.68
2024-02-29T10:45:25.053Z,12.81
2024-02-29T10:46:22.344Z,12.81
2024-02-29T10:47:22.236Z,8.58
2024-02-29T10:48:22.243Z,6.30
2024-02-29T10:49:22.307Z,7.18
2024-02-29T10:50:22.243Z,8.67
2024-02-29T10:51:24.516Z,8.54
2024-02-29T10:52:22.285Z,8.56
2024-02-29T10:53:22.244Z,8.62
2024-02-29T10:54:22.273Z,8.86
2024-02-29T10:55:22.354Z,9.41
2024-02-29T10:56:22.273Z,10.42
2024-02-29T10:57:22.242Z,10.93
2024-02-29T10:58:22.336Z,11.21
2024-02-29T10:59:22.272Z,11.67
2024-02-29T11:00:22.258Z,11.90
2024-02-29T11:01:22.375Z,12.23
2024-02-29T11:02:22.257Z,12.39
2024-02-29T11:03:22.259Z,12.74
2024-02-29T11:04:22.292Z,13.00
2024-02-29T11:05:22.263Z,13.14
2024-02-29T11:06:22.244Z,13.64
2024-02-29T11:07:22.360Z,13.99
2024-02-29T11:08:22.252Z,14.01
2024-02-29T11:09:25.538Z,14.50
2024-02-29T11:10:23.398Z,14.52
2024-02-29T11:11:22.336Z,14.61
2024-02-29T11:12:22.262Z,14.88
2024-02-29T11:13:22.383Z,15.52
2024-02-29T11:14:22.301Z,16.01
2024-02-29T11:15:23.489Z,16.60
2024-02-29T11:16:22.307Z,16.58
2024-02-29T11:17:22.274Z,16.94
2024-02-29T11:18:22.268Z,17.19
2024-02-29T11:19:22.349Z,17.12
2024-02-29T11:20:22.330Z,17.33
2024-02-29T11:21:22.276Z,17.43
2024-02-29T11:22:22.350Z,17.66
2024-02-29T11:23:22.281Z,17.35
2024-02-29T11:24:22.393Z,17.69
2024-02-29T11:25:22.518Z,17.32
2024-02-29T11:26:22.316Z,17.91
2024-02-29T11:27:22.341Z,17.59
2024-02-29T11:28:22.412Z,18.23
2024-02-29T11:29:22.394Z,17.77
2024-02-29T11:30:22.658Z,18.70
2024-02-29T11:31:22.518Z,18.00
2024-02-29T11:32:22.468Z,18.46
2024-02-29T11:33:22.595Z,18.71
2024-02-29T11:34:22.662Z,18.37
2024-02-29T11:35:22.622Z,19.10
2024-02-29T11:36:22.575Z,19.02
2024-02-29T11:37:24.884Z,19.11
2024-02-29T11:38:29.147Z,19.13
2024-02-29T11:39:23.626Z,19.16
2024-02-29T11:40:22.680Z,19.36
2024-02-29T11:41:22.620Z,19.50
2024-02-29T11:42:22.607Z,19.98
2024-02-29T11:43:24.881Z,18.40
2024-02-29T11:44:22.606Z,11.98
2024-02-29T11:45:22.813Z,8.73
2024-02-29T11:46:22.670Z,6.98
2024-02-29T11:47:22.618Z,5.26
2024-02-29T11:48:22.623Z,3.82
2024-02-29T11:49:22.737Z,2.99
2024-02-29T11:50:22.616Z,2.38
2024-02-29T11:51:22.646Z,1.84
2024-02-29T11:52:22.657Z,1.43
2024-02-29T11:53:22.624Z,1.18
2024-02-29T11:54:24.191Z,0.97
2024-02-29T11:55:22.805Z,0.90
2024-02-29T11:56:22.638Z,0.76
2024-02-29T11:57:22.651Z,0.66
2024-02-29T11:58:22.673Z,0.58
2024-02-29T11:59:22.729Z,0.50
2024-02-29T12:00:22.621Z,0.51
2024-02-29T12:01:22.677Z,0.50
2024-02-29T12:02:22.643Z,0.50
2024-02-29T12:03:23.668Z,0.50
2024-02-29T12:04:22.824Z,0.53
2024-02-29T12:05:22.685Z,0.71
2024-02-29T12:06:22.625Z,0.82
2024-02-29T12:07:22.698Z,0.90
2024-02-29T12:08:22.694Z,1.00
2024-02-29T12:09:22.640Z,1.04
2024-02-29T12:10:22.768Z,1.08
2024-02-29T12:11:22.690Z,1.12
2024-02-29T12:12:22.645Z,1.13
2024-02-29T12:13:22.713Z,1.15
2024-02-29T12:14:22.648Z,1.19
2024-02-29T12:15:22.683Z,1.19
2024-02-29T12:16:22.703Z,1.18
2024-02-29T12:17:22.664Z,1.23
2024-02-29T12:18:22.681Z,1.26
2024-02-29T12:19:22.735Z,1.25
2024-02-29T12:20:22.654Z,1.27
2024-02-29T12:21:28.639Z,1.30
2024-02-29T12:22:23.779Z,1.31
2024-02-29T12:23:22.672Z,1.31
2024-02-29T12:24:22.681Z,1.33
2024-02-29T12:25:22.779Z,1.36
2024-02-29T12:26:22.694Z,1.42
2024-02-29T12:27:22.699Z,1.45
2024-02-29T12:28:22.720Z,1.45
2024-02-29T12:29:22.679Z,1.50
2024-02-29T12:30:22.686Z,1.52
2024-02-29T12:31:22.959Z,1.54
2024-02-29T12:32:22.695Z,1.60
2024-02-29T12:33:26.425Z,1.60
2024-02-29T12:34:23.803Z,1.61
2024-02-29T12:35:22.770Z,1.63
2024-02-29T12:36:22.818Z,1.68
2024-02-29T12:37:22.829Z,1.75
2024-02-29T12:38:22.846Z,1.88
2024-02-29T12:39:22.778Z,1.94
2024-02-29T12:40:22.909Z,2.01
2024-02-29T12:41:22.781Z,2.02
2024-02-29T12:42:22.763Z,2.03
2024-02-29T12:43:22.950Z,2.08
2024-02-29T12:44:22.815Z,2.18
2024-02-29T12:45:22.923Z,2.12
2024-02-29T12:46:23.097Z,2.16
2024-02-29T12:47:23.034Z,2.14
2024-02-29T12:48:23.097Z,2.20
2024-02-29T12:49:23.225Z,2.21
2024-02-29T12:50:23.245Z,2.19
2024-02-29T12:51:23.347Z,2.25
2024-02-29T12:52:23.395Z,2.34
2024-02-29T12:53:23.456Z,2.30
2024-02-29T12:54:23.766Z,2.27
2024-02-29T12:55:23.797Z,2.37
2024-02-29T12:56:23.661Z,2.35
2024-02-29T12:57:23.724Z,2.39
2024-02-29T12:58:23.845Z,2.34
2024-02-29T12:59:23.850Z,2.45
2024-02-29T13:00:23.909Z,2.34
2024-02-29T13:01:23.987Z,2.40
2024-02-29T13:02:23.970Z,2.39
2024-02-29T13:03:24.011Z,2.41
2024-02-29T13:04:24.037Z,2.47
2024-02-29T13:05:24.089Z,2.51
2024-02-29T13:06:24.048Z,2.45
2024-02-29T13:07:24.176Z,2.43
2024-02-29T13:08:24.056Z,2.52
2024-02-29T13:09:24.048Z,2.45
2024-02-29T13:10:24.113Z,2.52
2024-02-29T13:11:24.122Z,2.50
2024-02-29T13:12:24.064Z,2.50
2024-02-29T13:13:24.098Z,2.49
2024-02-29T13:14:24.080Z,2.53
2024-02-29T13:15:24.137Z,2.57
2024-02-29T13:16:24.116Z,2.53
2024-02-29T13:17:24.144Z,2.50
2024-02-29T13:18:24.117Z,2.53